Diamond, Illinois
Current Conditions -  °F | °C
As of 12:15 PM on Wednesday 28 Jan 2015 (Local Time) from KC09 Reporting Station
Clear Clear  
Wind Chill: 23°   Ceiling: Unl
Heat Index: 32°   Visibility: 10mi
Dew Point: 25°   Wind: 13mph
Humidity: 76%   Direction: 160°SSE
Pressure: 30.17"   Gusts: NA
Location:  41.2967°N, 88.2846°W
Report Text: KC09 281815Z AUTO 16011KT 10SM CLR 00/M04 A3017 RMK AO2 T00001038
Loading
Personal Weather Stations






























Interactive Weather Map New forecast layout! Learn more

10-Day Weather Forecast

Advertisements
Track Severe Weather on mobile